createdAt,value
2022-08-28T00:37:24.620Z,3.20
2022-08-28T00:52:25.867Z,3.00
2022-08-28T00:57:28.135Z,3.00
2022-08-28T01:02:23.549Z,3.00
2022-08-28T01:17:24.722Z,3.00
2022-08-28T01:22:31.762Z,3.00
2022-08-28T01:27:24.004Z,3.20
2022-08-28T01:32:34.871Z,3.20
2022-08-28T01:37:24.066Z,3.10
2022-08-28T02:12:24.151Z,3.00
2022-08-28T02:22:23.698Z,2.80
2022-08-28T02:27:23.867Z,2.80
2022-08-28T02:47:23.822Z,2.70
2022-08-28T02:52:23.775Z,2.90
2022-08-28T02:57:24.612Z,2.90
2022-08-28T03:02:24.934Z,3.10
2022-08-28T03:22:34.074Z,3.10
2022-08-28T03:27:23.776Z,3.10
2022-08-28T03:37:23.900Z,2.90
2022-08-28T03:42:23.883Z,2.70
2022-08-28T03:57:24.307Z,2.90
2022-08-28T04:02:23.947Z,3.00
2022-08-28T04:07:23.935Z,3.00
2022-08-28T04:12:24.655Z,2.80
2022-08-28T04:22:23.981Z,3.00
2022-08-28T04:27:23.935Z,3.00
2022-08-28T04:32:23.990Z,2.80
2022-08-28T04:42:24.774Z,3.00
2022-08-28T04:57:24.076Z,2.90
2022-08-28T05:02:24.170Z,2.70
2022-08-28T05:12:24.248Z,2.50
2022-08-28T05:27:24.634Z,2.50
2022-08-28T05:32:24.085Z,2.50
2022-08-28T05:42:30.988Z,2.20
2022-08-28T05:52:24.341Z,2.30
2022-08-28T06:02:25.643Z,2.50
2022-08-28T06:07:24.318Z,2.50
2022-08-28T06:12:24.222Z,2.40
2022-08-28T06:17:25.007Z,2.40
2022-08-28T06:22:24.239Z,2.50
2022-08-28T06:27:24.315Z,2.50
2022-08-28T06:32:24.354Z,2.00
2022-08-28T06:37:24.328Z,2.00
2022-08-28T06:47:24.435Z,2.10
2022-08-28T06:52:24.384Z,2.10
2022-08-28T06:57:25.153Z,2.10
2022-08-28T07:02:24.393Z,3.70
2022-08-28T07:07:31.493Z,3.70
2022-08-28T07:12:24.413Z,2.10
2022-08-28T07:17:24.637Z,2.10
2022-08-28T07:27:24.511Z,2.40
2022-08-28T07:47:29.453Z,2.20
2022-08-28T07:57:24.581Z,2.10
2022-08-28T08:07:24.529Z,2.20
2022-08-28T08:17:24.705Z,2.00
2022-08-28T08:27:24.634Z,1.80
2022-08-28T08:32:24.824Z,1.70
2022-08-28T08:37:24.635Z,1.70
2022-08-28T08:42:30.824Z,2.10
2022-08-28T08:47:26.655Z,2.10
2022-08-28T08:57:25.048Z,1.70
2022-08-28T09:02:31.560Z,1.80
2022-08-28T09:07:33.100Z,1.80
2022-08-28T09:12:27.927Z,1.50
2022-08-28T09:17:31.176Z,1.50
2022-08-28T09:22:24.732Z,1.60
2022-08-28T09:27:30.612Z,1.60
2022-08-28T09:32:29.826Z,1.50
2022-08-28T09:37:26.465Z,1.50
2022-08-28T09:42:34.713Z,1.30
2022-08-28T09:47:36.310Z,1.30
2022-08-28T09:52:25.647Z,1.30
2022-08-28T10:12:24.875Z,1.40
2022-08-28T10:17:40.565Z,1.40
2022-08-28T10:22:40.590Z,1.40
2022-08-28T10:27:42.278Z,1.40
2022-08-28T10:32:34.884Z,1.10
2022-08-28T10:37:40.652Z,1.10
2022-08-28T10:42:36.059Z,1.20
2022-08-28T10:47:28.478Z,1.20
2022-08-28T10:52:31.328Z,1.10
2022-08-28T10:57:40.170Z,1.10
2022-08-28T11:02:26.578Z,1.20
2022-08-28T11:07:37.679Z,1.20
2022-08-28T11:12:28.416Z,1.20
2022-08-28T11:17:26.597Z,1.20
2022-08-28T11:22:27.987Z,0.90
2022-08-28T11:27:32.294Z,0.90
2022-08-28T11:32:34.101Z,1.10
2022-08-28T11:37:36.799Z,1.10
2022-08-28T11:42:34.496Z,1.20
2022-08-28T11:47:37.460Z,1.20
2022-08-28T11:52:40.094Z,1.00
2022-08-28T11:57:45.130Z,1.00
2022-08-28T12:02:38.497Z,0.80
2022-08-28T12:07:33.386Z,0.80
2022-08-28T12:12:45.075Z,1.20
2022-08-28T12:17:36.905Z,1.20
2022-08-28T12:22:42.796Z,0.90
2022-08-28T12:27:26.783Z,0.90
2022-08-28T12:32:36.347Z,0.90
2022-08-28T12:37:51.427Z,0.90
2022-08-28T12:42:31.429Z,1.10
2022-08-28T12:52:26.080Z,1.00
2022-08-28T12:57:25.358Z,1.00
2022-08-28T13:02:30.710Z,1.20
2022-08-28T13:07:33.106Z,1.20
2022-08-28T13:12:54.500Z,1.40
2022-08-28T13:17:45.336Z,1.40
2022-08-28T13:22:38.161Z,1.30
2022-08-28T13:32:26.186Z,1.10
2022-08-28T13:37:40.153Z,1.10
2022-08-28T13:42:25.466Z,1.40
2022-08-28T13:52:25.604Z,1.10
2022-08-28T13:57:26.540Z,1.10
2022-08-28T14:02:36.047Z,1.10
2022-08-28T14:07:25.538Z,1.10
2022-08-28T14:17:25.610Z,1.10
2022-08-28T14:22:26.358Z,1.30
2022-08-28T14:27:25.618Z,1.30
2022-08-28T14:32:25.772Z,1.60
2022-08-28T14:37:25.896Z,1.60
2022-08-28T14:47:25.703Z,1.30
2022-08-28T14:52:25.698Z,1.10
2022-08-28T14:57:25.742Z,1.10
2022-08-28T15:02:25.749Z,1.40
2022-08-28T15:07:28.483Z,1.40
2022-08-28T15:17:34.584Z,1.50
2022-08-28T15:22:27.285Z,1.20
2022-08-28T15:27:25.801Z,1.20
2022-08-28T15:32:26.356Z,1.20
2022-08-28T15:42:25.869Z,1.40
2022-08-28T15:47:26.050Z,1.40
2022-08-28T15:52:26.586Z,1.40
2022-08-28T15:57:25.887Z,1.40
2022-08-28T16:02:26.005Z,1.40
2022-08-28T16:07:25.951Z,1.40
2022-08-28T16:17:26.030Z,1.50
2022-08-28T16:27:25.945Z,2.00
2022-08-28T16:37:26.153Z,1.30
2022-08-28T16:42:29.688Z,1.40
2022-08-28T16:52:26.407Z,1.20
2022-08-28T17:02:27.057Z,1.40
2022-08-28T17:07:26.737Z,1.40
2022-08-28T17:12:26.126Z,1.40
2022-08-28T17:17:26.151Z,1.40
2022-08-28T17:27:26.960Z,1.50
2022-08-28T17:32:27.680Z,1.30
2022-08-28T17:37:26.309Z,1.30
2022-08-28T17:42:26.156Z,1.60
2022-08-28T17:47:27.461Z,1.60
2022-08-28T17:57:29.427Z,1.40
2022-08-28T18:02:27.199Z,1.30
2022-08-28T18:07:26.281Z,1.30
2022-08-28T18:12:26.934Z,1.60
2022-08-28T18:17:27.183Z,1.60
2022-08-28T18:22:29.842Z,1.60
2022-08-28T18:32:26.401Z,1.40
2022-08-28T18:42:26.334Z,1.20
2022-08-28T18:47:26.407Z,1.20
2022-08-28T18:57:26.436Z,1.60
2022-08-28T19:07:26.603Z,1.80
2022-08-28T19:17:27.030Z,1.70
2022-08-28T19:22:26.591Z,1.70
2022-08-28T19:27:26.378Z,1.70
2022-08-28T19:32:27.255Z,1.80
2022-08-28T19:52:26.681Z,3.10
2022-08-28T19:57:26.577Z,3.10
2022-08-28T20:12:26.668Z,2.90
2022-08-28T20:17:26.586Z,2.90
2022-08-28T20:22:27.121Z,2.50
2022-08-28T20:32:27.011Z,1.90
2022-08-28T20:42:31.775Z,1.70
2022-08-28T20:47:27.486Z,1.70
2022-08-28T20:52:26.668Z,1.90
2022-08-28T21:07:27.112Z,1.80
2022-08-28T21:22:27.997Z,1.80
2022-08-28T21:42:27.409Z,1.90
2022-08-28T21:47:27.207Z,1.90
2022-08-28T21:52:29.601Z,1.70
2022-08-28T22:02:27.188Z,1.80
2022-08-28T22:07:27.014Z,1.80
2022-08-28T22:12:26.849Z,1.60
2022-08-28T22:17:28.555Z,1.60
2022-08-28T22:22:36.885Z,1.80
2022-08-28T22:27:26.951Z,1.80
2022-08-28T22:32:27.051Z,2.00
2022-08-28T22:37:26.979Z,2.00
2022-08-28T22:47:27.470Z,1.80
2022-08-28T22:52:26.939Z,2.00
2022-08-28T23:02:27.750Z,2.10
2022-08-28T23:07:27.051Z,2.10
2022-08-28T23:12:27.708Z,2.10
2022-08-28T23:17:27.810Z,2.10
2022-08-28T23:22:27.065Z,2.20
2022-08-28T23:32:27.106Z,1.90
2022-08-28T23:37:27.116Z,1.90
2022-08-28T23:42:27.150Z,2.20
2022-08-28T23:47:27.262Z,2.20
2022-08-28T23:52:27.125Z,2.10
2022-08-28T23:57:27.869Z,2.10
